Time;durP1;ratioP1;P1;durP2;ratioP2;P2;SDS_P1;SDS_P2;PMS_P1;PMS_P2;Temp;Humidity;BMP_temperature;BMP_pressure;BME280_temperature;BME280_humidity;BME280_pressure;Samples;Min_cycle;Max_cycle;Signal;HPM_P1;HPM_P2
2021/11/05 00:00:12;;;;;;;5.33;3.90;;;7.40;99.90;7.40;99861.00;;;;4938860;28;88674;-66
2021/11/05 00:02:38;;;;;;;5.23;3.93;;;7.40;99.90;7.30;99852.00;;;;4938510;28;98141;-67
2021/11/05 00:05:05;;;;;;;6.40;4.00;;;7.50;99.90;7.30;99863.00;;;;4938987;28;95390;-66
2021/11/05 00:07:30;;;;;;;7.17;4.90;;;7.50;99.90;7.30;99869.00;;;;4938686;28;107023;-67
2021/11/05 00:09:56;;;;;;;6.83;4.77;;;7.40;99.90;7.40;99873.00;;;;4938563;28;104331;-67
2021/11/05 00:12:22;;;;;;;6.23;4.93;;;7.50;99.90;7.40;99878.00;;;;4938689;28;87982;-66
2021/11/05 00:14:48;;;;;;;12.23;6.03;;;7.40;99.90;7.30;99886.00;;;;4938137;28;108893;-66
2021/11/05 00:17:13;;;;;;;11.70;6.30;;;7.40;99.90;7.30;99892.00;;;;4937694;28;116408;-67
2021/11/05 00:19:39;;;;;;;10.03;5.67;;;7.40;99.90;7.30;99892.00;;;;4938212;28;120007;-67
2021/11/05 00:22:06;;;;;;;9.20;5.07;;;7.40;99.90;7.30;99899.00;;;;4938666;28;87799;-66
2021/11/05 00:24:33;;;;;;;8.13;5.17;;;7.40;99.90;7.30;99896.00;;;;4938382;28;110178;-66
2021/11/05 00:26:59;;;;;;;9.67;5.90;;;7.40;99.90;7.30;99899.00;;;;4938109;28;105866;-65
2021/11/05 00:29:25;;;;;;;6.87;5.13;;;8.40;99.90;7.30;99904.00;;;;4937754;28;101700;-65
2021/11/05 00:31:50;;;;;;;10.00;6.87;;;7.40;99.90;7.30;99914.00;;;;4938931;28;86948;-65
2021/11/05 00:34:17;;;;;;;11.43;6.83;;;7.40;99.90;7.30;99918.00;;;;4937419;28;109319;-65
2021/11/05 00:36:45;;;;;;;9.37;6.50;;;7.40;99.90;7.30;99921.00;;;;4938285;28;88839;-66
2021/11/05 00:39:11;;;;;;;10.23;6.13;;;7.40;99.90;7.30;99924.00;;;;4938189;28;88814;-66
2021/11/05 00:41:36;;;;;;;9.30;6.63;;;7.40;99.90;7.30;99930.00;;;;4938851;28;87926;-66
2021/11/05 00:44:02;;;;;;;9.97;6.00;;;7.40;99.90;7.30;99932.00;;;;4938266;28;109340;-66
2021/11/05 00:46:28;;;;;;;8.40;6.07;;;7.40;99.90;7.30;99941.00;;;;4937566;28;105046;-65
2021/11/05 00:48:54;;;;;;;13.23;6.60;;;7.40;99.90;7.30;99941.00;;;;4937702;28;117105;-66
2021/11/05 00:51:19;;;;;;;10.07;5.97;;;7.40;99.90;7.30;99947.00;;;;4937941;28;88026;-65
2021/11/05 00:53:45;;;;;;;10.77;6.20;;;7.40;99.90;7.30;99951.00;;;;4938937;28;87542;-64
2021/11/05 00:56:11;;;;;;;8.53;5.47;;;7.40;99.90;7.30;99963.00;;;;4937582;28;116692;-65
2021/11/05 00:58:36;;;;;;;7.73;5.90;;;7.30;99.90;7.30;99958.00;;;;4937221;28;118126;-64
2021/11/05 01:01:02;;;;;;;9.67;6.00;;;7.40;99.90;7.30;99969.00;;;;4937076;28;111594;-67
2021/11/05 01:03:28;;;;;;;8.33;4.83;;;7.30;99.90;7.30;99969.00;;;;4938279;28;88751;-65
2021/11/05 01:05:53;;;;;;;6.67;5.73;;;7.40;99.90;7.30;99980.00;;;;4936816;28;118568;-65
2021/11/05 01:08:19;;;;;;;9.87;6.30;;;7.40;99.90;7.30;99976.00;;;;4937024;28;117417;-66
2021/11/05 01:10:45;;;;;;;10.70;6.83;;;7.30;99.90;7.30;99980.00;;;;4938268;28;87805;-64
2021/11/05 01:13:11;;;;;;;8.43;6.00;;;7.30;99.90;7.30;99981.00;;;;4938650;28;87685;-65
2021/11/05 01:15:36;;;;;;;9.30;6.47;;;7.40;99.90;7.30;99973.00;;;;4952734;28;87938;-65
2021/11/05 01:18:02;;;;;;;11.03;7.10;;;7.40;99.90;7.30;99976.00;;;;4936732;28;118265;-65
2021/11/05 01:20:28;;;;;;;11.77;6.40;;;7.40;99.90;7.30;99999.00;;;;4937610;28;98323;-64
2021/11/05 01:22:54;;;;;;;11.67;6.47;;;7.40;99.90;7.30;99999.00;;;;4938445;28;87705;-65
2021/11/05 01:25:20;;;;;;;8.47;6.30;;;7.40;99.90;7.30;99996.00;;;;4937213;28;116973;-64
2021/11/05 01:27:49;;;;;;;11.00;6.23;;;7.40;99.90;7.20;99990.00;;;;4937231;28;88806;-64
2021/11/05 01:30:16;;;;;;;11.97;7.63;;;7.40;99.90;7.20;99990.00;;;;4937677;28;87923;-64
2021/11/05 01:32:43;;;;;;;11.07;7.07;;;7.40;99.90;7.20;100000.00;;;;4936933;28;88144;-64
2021/11/05 01:35:10;;;;;;;9.97;7.10;;;7.30;99.90;7.20;99999.00;;;;4933829;28;88837;-64
2021/11/05 01:37:37;;;;;;;13.77;7.63;;;7.30;99.90;7.20;100007.00;;;;4936978;28;102135;-65
2021/11/05 01:40:04;;;;;;;11.73;6.53;;;7.30;99.90;7.20;100018.00;;;;4937219;28;98758;-65
2021/11/05 01:42:30;;;;;;;9.77;6.63;;;7.30;99.90;7.20;100020.00;;;;4936177;28;90742;-65
2021/11/05 01:44:56;;;;;;;13.40;7.77;;;7.30;99.90;7.20;100019.00;;;;4936848;28;117428;-66
2021/11/05 01:47:21;;;;;;;15.43;7.90;;;7.30;99.90;7.20;100008.00;;;;4936808;28;107553;-66
2021/11/05 01:49:48;;;;;;;15.13;7.30;;;7.30;99.90;7.20;100019.00;;;;4937173;28;108931;-67
2021/11/05 01:52:16;;;;;;;19.53;9.17;;;7.30;99.90;7.20;100016.00;;;;4936333;28;96745;-65
2021/11/05 01:54:42;;;;;;;13.20;6.57;;;7.30;99.90;7.20;100020.00;;;;4937005;28;106442;-67
2021/11/05 01:57:08;;;;;;;16.00;7.30;;;7.30;99.90;7.20;100033.00;;;;4937306;28;90245;-67
2021/11/05 01:59:36;;;;;;;9.83;6.90;;;7.20;99.90;7.20;100023.00;;;;4936973;28;100073;-68
2021/11/05 02:02:06;;;;;;;16.67;7.33;;;7.30;99.90;7.10;100031.00;;;;4937669;28;87777;-67
2021/11/05 02:04:32;;;;;;;9.83;6.10;;;7.30;99.90;7.10;100030.00;;;;4937036;28;107895;-67
2021/11/05 02:06:58;;;;;;;11.10;6.80;;;7.20;99.90;7.10;100042.00;;;;4937618;28;87822;-66
2021/11/05 02:09:28;;;;;;;10.03;6.70;;;7.30;99.90;7.10;100046.00;;;;4935695;28;86908;-66
2021/11/05 02:11:58;;;;;;;12.80;7.27;;;7.20;99.90;7.20;100037.00;;;;4936444;28;97591;-67
2021/11/05 02:14:27;;;;;;;12.80;7.23;;;7.30;99.90;7.20;100045.00;;;;4937406;28;95677;-66
2021/11/05 02:16:56;;;;;;;12.93;8.57;;;7.30;99.90;7.20;100047.00;;;;4950712;28;94974;-66
2021/11/05 02:19:28;;;;;;;13.70;6.93;;;7.30;99.90;7.10;100042.00;;;;4937135;28;88047;-67
2021/11/05 02:21:55;;;;;;;10.03;6.33;;;7.20;99.90;7.10;100035.00;;;;4937073;28;87898;-68
2021/11/05 02:24:24;;;;;;;13.23;6.60;;;7.30;99.90;7.20;100043.00;;;;4951420;28;88094;-68
2021/11/05 02:26:50;;;;;;;9.73;6.67;;;7.20;99.90;7.10;100040.00;;;;4936791;28;87824;-68
2021/11/05 02:29:17;;;;;;;12.53;7.17;;;7.30;99.90;7.20;100054.00;;;;4937067;28;87710;-67
2021/11/05 02:31:43;;;;;;;16.60;8.03;;;7.30;99.90;7.20;100059.00;;;;4936917;28;88939;-68
2021/11/05 02:34:09;;;;;;;8.70;6.77;;;7.30;99.90;7.20;100056.00;;;;4936727;28;101882;-68
2021/11/05 02:36:35;;;;;;;12.63;6.90;;;7.30;99.90;7.20;100060.00;;;;4936687;28;87507;-66
2021/11/05 02:39:07;;;;;;;9.43;6.87;;;7.30;99.90;7.10;100061.00;;;;4936987;28;87668;-68
2021/11/05 02:41:37;;;;;;;11.03;6.67;;;7.20;99.90;7.20;100074.00;;;;4932805;28;88652;-67
2021/11/05 02:44:03;;;;;;;13.90;7.00;;;7.20;99.90;7.20;100081.00;;;;4936309;28;105897;-68
2021/11/05 02:46:29;;;;;;;13.40;6.50;;;7.30;99.90;7.20;100078.00;;;;4936482;28;88234;-66
2021/11/05 02:49:05;;;;;;;12.87;7.37;;;7.30;99.90;7.20;100092.00;;;;4935473;28;100376;-67
2021/11/05 02:51:32;;;;;;;11.70;7.33;;;7.20;99.90;7.20;100096.00;;;;4934146;28;87745;-66
2021/11/05 02:54:00;;;;;;;11.77;6.70;;;8.70;99.90;7.20;100101.00;;;;4936839;28;88418;-67
2021/11/05 02:56:25;;;;;;;11.10;7.00;;;7.30;99.90;7.20;100114.00;;;;4937022;28;89736;-67
2021/11/05 02:58:52;;;;;;;12.37;7.80;;;7.30;99.90;7.20;100109.00;;;;4936744;28;87005;-66
2021/11/05 03:01:19;;;;;;;13.87;6.67;;;8.20;99.90;7.20;100104.00;;;;4937003;28;88324;-68
2021/11/05 03:03:46;;;;;;;10.87;6.63;;;7.30;99.90;7.20;100121.00;;;;4936035;28;95628;-67
2021/11/05 03:06:12;;;;;;;11.50;7.20;;;7.30;99.90;7.20;100118.00;;;;4934588;28;118380;-67
2021/11/05 03:08:38;;;;;;;13.30;8.27;;;7.30;99.90;7.20;100116.00;;;;4935327;28;101519;-68
2021/11/05 03:11:04;;;;;;;12.17;7.13;;;7.30;99.90;7.30;100125.00;;;;4950213;28;108459;-68
2021/11/05 03:13:30;;;;;;;10.10;6.70;;;7.40;99.90;7.30;100127.00;;;;4935227;28;88961;-67
2021/11/05 03:15:57;;;;;;;13.30;7.00;;;7.40;99.90;7.30;100135.00;;;;4936621;28;88938;-67
2021/11/05 03:18:24;;;;;;;9.23;6.30;;;7.40;99.90;7.20;100134.00;;;;4936223;28;87982;-67
2021/11/05 03:20:49;;;;;;;12.13;7.03;;;7.30;99.90;7.30;100140.00;;;;4936364;28;88723;-67
2021/11/05 03:23:16;;;;;;;11.17;7.00;;;7.30;99.90;7.30;100152.00;;;;4934734;28;116309;-66
2021/11/05 03:25:42;;;;;;;13.53;7.13;;;7.40;99.90;7.30;100145.00;;;;4935943;28;88239;-66
2021/11/05 03:28:08;;;;;;;13.33;7.73;;;7.40;99.90;7.30;100147.00;;;;4936559;28;87738;-69
2021/11/05 03:30:36;;;;;;;9.80;6.70;;;7.40;99.90;7.30;100156.00;;;;4952380;28;109004;-66
2021/11/05 03:33:02;;;;;;;12.37;7.43;;;7.40;99.90;7.30;100147.00;;;;4938837;28;87947;-68
2021/11/05 03:35:28;;;;;;;11.87;7.10;;;7.40;99.90;7.20;100149.00;;;;4918052;28;88550;-66
2021/11/05 03:37:54;;;;;;;11.00;7.13;;;7.90;99.90;7.30;100161.00;;;;4938410;28;87623;-66
2021/11/05 03:40:21;;;;;;;12.10;7.23;;;7.30;99.90;7.30;100162.00;;;;4939784;28;87816;-67
2021/11/05 03:42:48;;;;;;;11.53;7.07;;;7.40;99.90;7.30;100167.00;;;;4939204;28;88825;-67
2021/11/05 03:45:18;;;;;;;14.47;7.17;;;7.30;99.90;7.30;100174.00;;;;4939600;28;87906;-68
2021/11/05 03:47:45;;;;;;;11.03;7.67;;;7.40;99.90;7.30;100170.00;;;;4954057;28;87127;-68
2021/11/05 03:50:10;;;;;;;12.07;7.67;;;7.40;99.90;7.30;100183.00;;;;4954022;28;88762;-68
2021/11/05 03:52:36;;;;;;;10.87;7.70;;;7.30;99.90;7.20;100179.00;;;;4938072;28;118544;-67
2021/11/05 03:55:05;;;;;;;13.57;7.60;;;7.40;99.90;7.30;100187.00;;;;4939629;28;89153;-69
2021/11/05 03:57:31;;;;;;;15.57;7.47;;;7.40;99.90;7.30;100185.00;;;;4939151;28;87846;-67
2021/11/05 03:59:57;;;;;;;12.93;8.00;;;7.40;99.90;7.30;100200.00;;;;4940014;28;87971;-67
2021/11/05 04:02:22;;;;;;;11.73;8.03;;;7.40;99.90;7.30;100189.00;;;;4937773;28;118004;-69
2021/11/05 04:04:48;;;;;;;14.27;7.43;;;7.40;99.90;7.30;100200.00;;;;4938624;28;117255;-69
2021/11/05 04:07:14;;;;;;;10.20;6.67;;;7.40;99.90;7.30;100204.00;;;;4938608;28;110643;-67
2021/11/05 04:09:39;;;;;;;11.67;6.83;;;7.50;99.90;7.30;100206.00;;;;4938165;28;95477;-68
2021/11/05 04:12:06;;;;;;;13.70;8.03;;;7.40;99.90;7.30;100207.00;;;;4937839;28;116622;-69
2021/11/05 04:14:32;;;;;;;13.97;7.50;;;7.50;99.90;7.30;100211.00;;;;4938474;28;95656;-67
2021/11/05 04:16:58;;;;;;;12.07;6.70;;;7.40;99.90;7.30;100222.00;;;;4939326;28;87678;-67
2021/11/05 04:19:23;;;;;;;13.33;7.90;;;7.40;99.90;7.30;100221.00;;;;4938280;28;88642;-69
2021/11/05 04:21:49;;;;;;;13.20;7.73;;;7.40;99.90;7.30;100223.00;;;;4953154;28;88985;-71
2021/11/05 04:24:16;;;;;;;10.37;7.13;;;7.40;99.90;7.30;100227.00;;;;4951861;28;116481;-66
2021/11/05 04:26:42;;;;;;;10.33;7.10;;;7.40;99.90;7.30;100237.00;;;;4938962;28;87602;-68
2021/11/05 04:29:07;;;;;;;11.57;6.27;;;7.40;99.90;7.30;100239.00;;;;4939231;28;88139;-68
2021/11/05 04:31:33;;;;;;;13.30;8.83;;;7.40;99.90;7.30;100242.00;;;;4937749;28;117401;-70
2021/11/05 04:33:59;;;;;;;12.73;7.27;;;7.40;99.90;7.20;100248.00;;;;4936834;28;88512;-68
2021/11/05 04:36:26;;;;;;;12.37;6.63;;;7.30;99.90;7.30;100251.00;;;;4937919;28;86900;-70
2021/11/05 04:38:51;;;;;;;12.97;7.07;;;7.40;99.90;7.30;100248.00;;;;4937504;28;87755;-70
2021/11/05 04:41:18;;;;;;;16.50;8.27;;;7.30;99.90;7.20;100253.00;;;;4936278;28;117643;-68
2021/11/05 04:43:44;;;;;;;10.70;6.63;;;7.40;99.90;7.20;100255.00;;;;4950862;28;90368;-68
2021/11/05 04:46:09;;;;;;;19.10;7.57;;;7.30;99.90;7.20;100263.00;;;;4936960;28;96856;-70
2021/11/05 04:48:35;;;;;;;12.13;7.63;;;7.30;99.90;7.20;100254.00;;;;4951968;28;87557;-69
2021/11/05 04:51:01;;;;;;;13.80;7.40;;;7.30;99.90;7.30;100262.00;;;;4937817;28;88274;-69
2021/11/05 04:53:27;;;;;;;12.00;7.57;;;7.40;99.90;7.30;100256.00;;;;4936130;28;117437;-68
2021/11/05 04:55:52;;;;;;;11.00;6.93;;;7.30;99.90;7.20;100260.00;;;;4936188;28;109225;-68
2021/11/05 04:58:18;;;;;;;10.67;7.33;;;7.30;99.90;7.20;100269.00;;;;4936148;28;108062;-67
2021/11/05 05:00:44;;;;;;;14.73;7.60;;;7.30;99.90;7.20;100268.00;;;;4936368;28;112432;-68
2021/11/05 05:03:10;;;;;;;21.83;7.47;;;7.40;99.90;7.20;100280.00;;;;4935366;28;115771;-67
2021/11/05 05:05:36;;;;;;;8.63;6.20;;;7.30;99.90;7.20;100277.00;;;;4935812;28;110583;-65
2021/11/05 05:08:02;;;;;;;8.47;6.17;;;7.30;99.90;7.20;100280.00;;;;4951238;28;88871;-66
2021/11/05 05:10:28;;;;;;;10.87;6.50;;;7.30;99.90;7.20;100283.00;;;;4935936;28;87793;-69
2021/11/05 05:12:55;;;;;;;9.20;6.20;;;7.30;99.90;7.20;100287.00;;;;4936290;28;88156;-66
2021/11/05 05:15:21;;;;;;;8.13;7.03;;;7.30;99.90;7.20;100289.00;;;;4936855;28;87971;-66
2021/11/05 05:17:47;;;;;;;9.10;6.27;;;7.30;99.90;7.20;100287.00;;;;4937236;28;87970;-65
2021/11/05 05:20:16;;;;;;;8.53;5.90;;;7.30;99.90;7.20;100292.00;;;;4936557;28;88388;-66
2021/11/05 05:22:43;;;;;;;8.10;5.53;;;7.30;99.90;7.20;100289.00;;;;4935832;28;88039;-66
2021/11/05 05:25:12;;;;;;;12.17;6.47;;;7.70;99.90;7.20;100303.00;;;;4937699;28;86970;-67
2021/11/05 05:27:39;;;;;;;9.47;5.63;;;7.30;99.90;7.20;100305.00;;;;4951451;28;87910;-67
2021/11/05 05:30:08;;;;;;;9.47;5.60;;;7.30;99.90;7.20;100315.00;;;;4950820;28;96133;-67
2021/11/05 05:32:34;;;;;;;8.17;5.03;;;7.30;99.90;7.20;100317.00;;;;4935725;28;88756;-67
2021/11/05 05:35:00;;;;;;;9.13;5.50;;;7.30;99.90;7.20;100317.00;;;;4913223;28;1104890;-67
2021/11/05 05:37:26;;;;;;;8.37;5.33;;;7.30;99.90;7.20;100325.00;;;;4952155;28;88116;-67
2021/11/05 05:39:52;;;;;;;7.30;5.07;;;7.30;99.90;7.20;100333.00;;;;4937485;28;88227;-67
2021/11/05 05:42:17;;;;;;;6.87;4.90;;;7.70;99.90;7.20;100326.00;;;;4935586;28;117560;-67
2021/11/05 05:44:43;;;;;;;8.20;5.27;;;7.30;99.90;7.20;100332.00;;;;4936448;28;109982;-67
2021/11/05 05:47:09;;;;;;;8.80;5.23;;;7.30;99.90;7.20;100342.00;;;;4936368;28;109168;-67
2021/11/05 05:49:35;;;;;;;7.20;4.43;;;7.30;99.90;7.20;100346.00;;;;4937151;28;88056;-68
2021/11/05 05:52:01;;;;;;;5.90;4.13;;;7.30;99.90;7.20;100352.00;;;;4935586;28;102284;-66
2021/11/05 05:54:26;;;;;;;6.83;5.13;;;7.30;99.90;7.20;100357.00;;;;4936687;28;87804;-68
2021/11/05 05:56:52;;;;;;;6.47;4.10;;;7.30;99.90;7.10;100357.00;;;;4936054;28;108324;-68
2021/11/05 05:59:19;;;;;;;5.37;3.80;;;7.30;99.90;7.10;100366.00;;;;4951642;28;87923;-65
2021/11/05 06:01:46;;;;;;;5.67;4.00;;;7.20;99.90;7.20;100373.00;;;;4934983;28;89750;-69
2021/11/05 06:04:11;;;;;;;5.93;4.17;;;7.20;99.90;7.20;100368.00;;;;4934924;28;87820;-67
2021/11/05 06:06:37;;;;;;;4.70;3.80;;;7.30;99.90;7.10;100386.00;;;;4950629;28;108414;-67
2021/11/05 06:09:03;;;;;;;5.37;4.07;;;7.30;99.90;7.20;100387.00;;;;4936234;28;116186;-66
2021/11/05 06:11:28;;;;;;;4.10;3.27;;;7.20;99.90;7.10;100382.00;;;;4915435;28;117640;-67
2021/11/05 06:13:54;;;;;;;7.57;4.37;;;7.20;99.90;7.10;100391.00;;;;4916698;28;110232;-67
2021/11/05 06:16:20;;;;;;;9.73;3.53;;;7.20;99.90;7.10;100401.00;;;;4938004;28;87815;-67
2021/11/05 06:18:46;;;;;;;5.93;3.27;;;7.20;99.90;7.10;100407.00;;;;4936296;28;90800;-70
2021/11/05 06:21:12;;;;;;;3.53;2.80;;;7.20;99.90;7.10;100420.00;;;;4936247;28;88695;-68
2021/11/05 06:23:38;;;;;;;3.97;3.03;;;7.20;99.90;7.10;100417.00;;;;4933377;28;109488;-68
2021/11/05 06:26:04;;;;;;;5.33;2.83;;;7.20;99.90;7.10;100424.00;;;;4950767;28;107850;-69
2021/11/05 06:28:29;;;;;;;3.40;2.50;;;7.10;99.90;7.00;100424.00;;;;4936032;28;106981;-68
2021/11/05 06:30:55;;;;;;;4.43;2.77;;;7.10;99.90;7.00;100436.00;;;;4935796;28;88513;-68
2021/11/05 06:33:21;;;;;;;3.73;2.60;;;7.10;99.90;7.00;100430.00;;;;4934803;28;98015;-67
2021/11/05 06:35:47;;;;;;;3.67;2.57;;;7.10;99.90;7.00;100440.00;;;;4936301;28;107667;-69
2021/11/05 06:38:13;;;;;;;2.53;2.33;;;7.10;99.90;6.90;100443.00;;;;4936573;28;94301;-68
2021/11/05 06:40:40;;;;;;;3.57;2.43;;;7.20;99.90;7.00;100446.00;;;;4936284;28;87707;-68
2021/11/05 06:43:07;;;;;;;4.03;2.90;;;7.00;99.90;6.90;100457.00;;;;4935865;28;87730;-67
2021/11/05 06:45:33;;;;;;;4.83;3.00;;;7.00;99.90;7.00;100463.00;;;;4935737;28;88740;-68
2021/11/05 06:47:58;;;;;;;5.90;3.00;;;7.00;99.90;7.00;100465.00;;;;4935706;28;118104;-69
2021/11/05 06:50:24;;;;;;;3.67;2.73;;;7.00;99.90;7.00;100464.00;;;;4934484;28;115723;-70
2021/11/05 06:52:50;;;;;;;2.53;2.33;;;7.40;99.90;7.00;100473.00;;;;4935780;28;87954;-69
2021/11/05 06:55:16;;;;;;;3.20;2.70;;;7.10;99.90;7.00;100478.00;;;;4935652;28;109499;-69
2021/11/05 06:57:42;;;;;;;3.90;2.67;;;7.00;99.90;6.90;100482.00;;;;4935934;28;89020;-69
2021/11/05 07:00:11;;;;;;;2.57;2.33;;;7.10;99.90;6.90;100489.00;;;;4935417;28;115863;-68
2021/11/05 07:02:41;;;;;;;5.33;3.43;;;7.00;99.90;6.90;100497.00;;;;4918311;28;87126;-69
2021/11/05 07:05:09;;;;;;;4.20;3.20;;;7.10;99.90;7.00;100500.00;;;;4936001;28;87760;-69
2021/11/05 07:07:35;;;;;;;5.50;2.87;;;7.00;99.90;7.00;100502.00;;;;4950570;28;87780;-69
2021/11/05 07:10:01;;;;;;;4.60;3.33;;;7.10;99.90;7.00;100523.00;;;;4932744;28;99775;-69
2021/11/05 07:12:26;;;;;;;5.03;3.17;;;7.00;99.90;7.00;100531.00;;;;4935882;28;88008;-70
2021/11/05 07:14:52;;;;;;;4.53;3.37;;;7.00;99.90;7.00;100534.00;;;;4935898;28;107133;-69
2021/11/05 07:17:18;;;;;;;3.13;2.33;;;7.00;99.90;6.90;100533.00;;;;4935067;28;100792;-69
2021/11/05 07:19:43;;;;;;;5.03;2.47;;;7.10;99.90;7.00;100535.00;;;;4934835;28;117539;-69
2021/11/05 07:22:09;;;;;;;3.83;2.63;;;7.10;99.90;7.00;100541.00;;;;4934377;28;110421;-68
2021/11/05 07:24:36;;;;;;;9.47;4.37;;;7.10;99.90;7.00;100549.00;;;;4935468;28;87691;-69
2021/11/05 07:27:03;;;;;;;3.13;2.43;;;7.00;99.90;7.00;100547.00;;;;4936282;28;88188;-67
2021/11/05 07:29:31;;;;;;;3.40;2.53;;;7.00;99.90;7.00;100546.00;;;;4935833;28;87938;-70
2021/11/05 07:32:02;;;;;;;2.87;2.47;;;7.00;99.90;7.00;100554.00;;;;4935753;28;87663;-69
2021/11/05 07:34:32;;;;;;;3.13;2.00;;;7.10;99.90;7.00;100563.00;;;;4949432;28;88757;-69
2021/11/05 07:37:04;;;;;;;2.40;2.20;;;7.10;99.90;7.00;100561.00;;;;4935723;28;87977;-67
2021/11/05 07:39:30;;;;;;;4.80;2.97;;;7.10;99.90;7.00;100563.00;;;;4950340;28;88077;-68
2021/11/05 07:41:56;;;;;;;3.50;2.80;;;7.10;99.90;7.00;100569.00;;;;4949585;28;102627;-68
2021/11/05 07:44:23;;;;;;;4.23;2.73;;;7.00;99.90;7.00;100580.00;;;;4934978;28;93658;-68
2021/11/05 07:46:49;;;;;;;3.67;2.53;;;7.10;99.90;7.00;100587.00;;;;4935790;28;88523;-68
2021/11/05 07:49:15;;;;;;;4.77;3.30;;;7.00;99.90;7.00;100578.00;;;;4950004;28;98337;-67
2021/11/05 07:51:41;;;;;;;4.87;3.13;;;7.10;99.90;7.00;100594.00;;;;4934876;28;109568;-67
2021/11/05 07:54:07;;;;;;;5.10;2.93;;;7.20;99.90;7.00;100594.00;;;;4934632;28;106268;-69
2021/11/05 07:56:34;;;;;;;3.10;2.80;;;7.10;99.90;7.10;100596.00;;;;4949565;28;87961;-66
2021/11/05 07:59:01;;;;;;;3.53;2.73;;;7.10;99.90;7.10;100607.00;;;;4934929;28;88781;-66
2021/11/05 08:01:27;;;;;;;4.77;3.13;;;7.20;99.90;7.10;100608.00;;;;4944085;28;88097;-67
2021/11/05 08:03:53;;;;;;;3.70;3.00;;;7.20;99.90;7.10;100614.00;;;;4935120;28;87846;-66
2021/11/05 08:06:19;;;;;;;4.13;3.00;;;7.20;99.90;7.20;100613.00;;;;4934145;28;117963;-66
2021/11/05 08:08:45;;;;;;;4.60;3.77;;;7.20;99.90;7.20;100628.00;;;;4934054;28;117670;-67
2021/11/05 08:11:12;;;;;;;4.87;3.33;;;7.30;99.90;7.20;100633.00;;;;4935381;28;87924;-66
2021/11/05 08:13:39;;;;;;;5.27;3.10;;;7.30;99.90;7.20;100637.00;;;;4934947;28;87836;-67
2021/11/05 08:16:05;;;;;;;4.70;3.23;;;7.30;99.90;7.30;100640.00;;;;4936733;28;88113;-68
2021/11/05 08:18:30;;;;;;;5.33;3.67;;;7.40;99.90;7.30;100646.00;;;;4937364;28;116296;-69
2021/11/05 08:20:56;;;;;;;5.60;4.30;;;7.30;99.90;7.30;100643.00;;;;4936949;28;110544;-71
2021/11/05 08:23:23;;;;;;;6.93;4.20;;;7.40;99.90;7.30;100649.00;;;;4938098;28;88667;-71
2021/11/05 08:25:49;;;;;;;8.27;4.00;;;7.40;99.90;7.30;100668.00;;;;4938700;28;89103;-70
2021/11/05 08:28:19;;;;;;;4.90;3.83;;;7.40;99.90;7.30;100670.00;;;;4937239;28;97971;-72
2021/11/05 08:30:47;;;;;;;7.77;3.53;;;7.40;99.90;7.30;100662.00;;;;4938263;28;87724;-71
2021/11/05 08:33:13;;;;;;;4.03;3.33;;;7.40;99.90;7.30;100676.00;;;;4937964;28;93186;-67
2021/11/05 08:35:41;;;;;;;4.57;3.93;;;7.40;99.90;7.30;100667.00;;;;4952595;28;88977;-69
2021/11/05 08:38:14;;;;;;;4.73;3.10;;;7.40;99.90;7.30;100677.00;;;;4938371;28;88771;-69
2021/11/05 08:40:44;;;;;;;5.00;3.50;;;7.40;99.90;7.30;100669.00;;;;4938628;28;87338;-69
2021/11/05 08:43:12;;;;;;;5.27;3.60;;;7.40;99.90;7.40;100682.00;;;;4938559;28;87601;-68
2021/11/05 08:45:37;;;;;;;6.47;3.20;;;7.50;99.90;7.40;100700.00;;;;4937311;28;88612;-67
2021/11/05 08:48:05;;;;;;;7.13;3.50;;;7.50;99.90;7.40;100691.00;;;;4936359;28;104446;-67
2021/11/05 08:50:34;;;;;;;5.33;4.03;;;7.50;99.90;7.40;100692.00;;;;4936058;28;87709;-68
2021/11/05 08:53:00;;;;;;;4.27;3.60;;;7.50;99.90;7.40;100703.00;;;;4937872;28;87999;-68
2021/11/05 08:55:25;;;;;;;7.70;4.00;;;7.50;99.90;7.40;100701.00;;;;4936829;28;108024;-69
2021/11/05 08:57:51;;;;;;;11.03;4.47;;;7.50;99.90;7.40;100698.00;;;;4937363;28;88080;-70
2021/11/05 09:00:22;;;;;;;4.83;3.17;;;7.50;99.90;7.50;100723.00;;;;4937321;28;87841;-69
2021/11/05 09:02:48;;;;;;;5.27;3.67;;;7.50;99.90;7.50;100730.00;;;;4937883;28;88003;-67
2021/11/05 09:05:16;;;;;;;4.80;3.63;;;7.50;99.90;7.50;100725.00;;;;4938303;28;87859;-69
2021/11/05 09:07:42;;;;;;;6.83;4.33;;;7.50;99.90;7.50;100731.00;;;;4951912;28;88731;-70
2021/11/05 09:10:09;;;;;;;4.67;3.67;;;7.60;99.90;7.50;100733.00;;;;4937749;28;96654;-70
2021/11/05 09:12:39;;;;;;;5.20;3.97;;;7.60;99.90;7.50;100734.00;;;;4937938;28;88955;-72
2021/11/05 09:15:09;;;;;;;8.03;4.37;;;7.50;99.90;7.50;100745.00;;;;4951434;28;89438;-69
2021/11/05 09:17:38;;;;;;;4.97;3.90;;;7.60;99.90;7.60;100749.00;;;;4937126;28;102035;-68
2021/11/05 09:20:06;;;;;;;5.53;3.83;;;7.60;99.90;7.60;100756.00;;;;4937973;28;87723;-69
2021/11/05 09:22:32;;;;;;;4.53;4.13;;;7.60;99.90;7.60;100762.00;;;;4937093;28;87491;-73
2021/11/05 09:24:58;;;;;;;5.33;3.83;;;7.60;99.90;7.60;100763.00;;;;4937231;28;88521;-69
2021/11/05 09:27:26;;;;;;;6.93;4.43;;;7.60;99.90;7.60;100771.00;;;;4935609;28;117655;-70
2021/11/05 09:29:52;;;;;;;6.43;4.27;;;7.60;99.90;7.50;100773.00;;;;4937769;28;87060;-72
2021/11/05 09:32:18;;;;;;;8.27;4.37;;;7.60;99.90;7.60;100777.00;;;;4936198;28;108212;-70
2021/11/05 09:34:43;;;;;;;9.07;4.70;;;7.70;99.90;7.60;100780.00;;;;4935572;28;116862;-70
2021/11/05 09:37:09;;;;;;;5.10;4.23;;;7.60;99.90;7.60;100785.00;;;;4936540;28;108753;-69
2021/11/05 09:39:35;;;;;;;8.47;4.80;;;7.70;99.90;7.60;100794.00;;;;4935697;28;110922;-70
2021/11/05 09:42:01;;;;;;;4.93;3.73;;;7.70;99.90;7.60;100796.00;;;;4936769;28;87613;-71
2021/11/05 09:44:29;;;;;;;6.60;3.80;;;7.70;99.90;7.60;100798.00;;;;4936560;28;100663;-70
2021/11/05 09:47:04;;;;;;;7.97;4.50;;;7.70;99.90;7.60;100793.00;;;;4935717;28;88828;-70
2021/11/05 09:49:32;;;;;;;6.83;4.33;;;7.70;99.90;7.60;100803.00;;;;4937373;28;87837;-70
2021/11/05 09:52:00;;;;;;;7.00;5.13;;;7.70;99.90;7.60;100798.00;;;;4936579;28;93354;-70
2021/11/05 09:54:29;;;;;;;6.33;4.23;;;7.70;99.90;7.60;100808.00;;;;4934193;28;103749;-71
2021/11/05 09:56:55;;;;;;;8.57;4.70;;;7.70;99.90;7.60;100802.00;;;;4936365;28;87750;-70
2021/11/05 09:59:21;;;;;;;5.73;4.80;;;7.70;99.90;7.60;100808.00;;;;4936203;28;87743;-70
2021/11/05 10:01:47;;;;;;;6.53;5.00;;;7.80;99.90;7.60;100811.00;;;;4935928;28;108665;-71
2021/11/05 10:04:14;;;;;;;5.83;4.40;;;7.70;99.90;7.60;100817.00;;;;4936595;28;88372;-71
2021/11/05 10:07:10;;;;;;;7.00;4.67;;;7.70;99.90;7.60;100823.00;;;;4936114;28;88805;-70
2021/11/05 10:09:42;;;;;;;7.77;4.27;;;7.70;99.90;7.60;100828.00;;;;4950886;28;87655;-70
2021/11/05 10:12:21;;;;;;;7.10;4.80;;;7.70;99.90;7.70;100838.00;;;;4936719;28;87781;-69
2021/11/05 10:15:00;;;;;;;10.10;5.07;;;7.70;99.90;7.70;100828.00;;;;4936357;28;87963;-69
2021/11/05 10:17:26;;;;;;;8.03;4.83;;;7.80;99.90;7.70;100839.00;;;;4934001;28;89836;-68
2021/11/05 10:19:59;;;;;;;10.10;5.33;;;7.80;99.90;7.70;100845.00;;;;4935482;28;87100;-70
2021/11/05 10:22:52;;;;;;;9.90;5.27;;;7.80;99.90;7.70;100826.00;;;;4951035;28;87740;-71
2021/11/05 10:25:26;;;;;;;6.07;5.43;;;7.80;99.90;7.80;100843.00;;;;4936317;28;89434;-68
2021/11/05 10:28:25;;;;;;;4.80;4.17;;;7.80;99.90;7.80;100837.00;;;;4936285;28;88806;-71
2021/11/05 10:30:58;;;;;;;8.77;5.20;;;7.90;99.90;7.80;100832.00;;;;4936670;28;87733;-68
2021/11/05 10:33:29;;;;;;;8.47;5.00;;;7.90;99.90;7.80;100847.00;;;;4935884;28;87707;-69
2021/11/05 10:35:58;;;;;;;10.67;5.90;;;7.90;99.90;7.80;100848.00;;;;4951058;28;88012;-69
2021/11/05 10:38:24;;;;;;;6.77;5.47;;;7.90;99.90;7.80;100850.00;;;;4936019;28;88237;-68
2021/11/05 10:40:56;;;;;;;8.20;5.73;;;7.90;99.90;7.80;100854.00;;;;4933600;28;102071;-71
2021/11/05 10:43:47;;;;;;;10.87;5.53;;;7.90;99.90;7.80;100853.00;;;;4936672;28;87774;-69
2021/11/05 10:46:39;;;;;;;8.37;5.83;;;7.90;99.90;7.90;100863.00;;;;4936057;28;87035;-68
2021/11/05 10:49:07;;;;;;;7.20;5.43;;;8.00;99.90;7.90;100861.00;;;;4950817;28;87816;-70
2021/11/05 10:51:35;;;;;;;7.70;5.40;;;8.00;99.90;7.90;100858.00;;;;4938237;28;88493;-70
2021/11/05 10:54:03;;;;;;;11.40;6.73;;;8.00;99.90;7.90;100866.00;;;;4936244;28;88838;-68
2021/11/05 10:56:31;;;;;;;8.67;6.27;;;7.90;99.90;7.90;100870.00;;;;4935722;28;89229;-68